Time,TemperatureF,DewpointF,PressureIn,WindDirection,WindDirectionDegrees,WindSpeedMPH,WindSpeedGustMPH,Humidity,HourlyPrecipIn,Conditions,Clouds,dailyrainin,SoftwareType,DateUTC
2013-07-16 00:00:00,66.0,66.0,30.15,South,180,7.0,12.0,100,0.01,RA,,0.00,WeatherDisplay:10.37,2013-07-16 07:00:00,
2013-07-16 00:10:00,66.0,66.0,30.15,South,183,7.0,10.0,100,0.00,CLR,,0.00,WeatherDisplay:10.37,2013-07-16 07:10:00,
2013-07-16 00:20:00,66.0,66.0,30.15,South,179,5.0,13.0,100,0.00,CLR,,0.00,WeatherDisplay:10.37,2013-07-16 07:20:00,
2013-07-16 00:30:00,66.0,66.0,30.15,South,185,9.0,15.0,100,0.00,CLR,,0.00,WeatherDisplay:10.37,2013-07-16 07:30:00,
2013-07-16 00:40:00,66.0,66.0,30.16,South,185,8.0,13.0,100,0.00,CLR,,0.00,WeatherDisplay:10.37,2013-07-16 07:40:00,
2013-07-16 00:50:00,65.9,65.9,30.17,South,180,5.0,12.0,100,0.00,CLR,,0.00,WeatherDisplay:10.37,2013-07-16 07:50:00,
2013-07-16 01:00:00,65.0,65.0,30.17,South,171,2.0,5.0,100,0.00,CLR,,0.00,WeatherDisplay:10.37,2013-07-16 08:00:00,
2013-07-16 01:10:00,65.0,65.0,30.17,South,175,0.0,6.0,100,0.00,CLR,,0.00,WeatherDisplay:10.37,2013-07-16 08:10:00,
2013-07-16 01:20:00,65.0,65.0,30.17,ESE,112,1.0,3.0,100,0.00,CLR,,0.00,WeatherDisplay:10.37,2013-07-16 08:20:00,
2013-07-16 01:30:00,65.0,65.0,30.16,ESE,112,1.0,4.0,100,0.01,RA,,0.01,WeatherDisplay:10.37,2013-07-16 08:30:00,
2013-07-16 01:40:00,65.0,65.0,30.16,South,172,3.0,6.0,100,0.00,CLR,,0.01,WeatherDisplay:10.37,2013-07-16 08:40:00,
2013-07-16 01:50:00,65.0,65.0,30.15,South,180,1.0,6.0,100,0.00,CLR,,0.01,WeatherDisplay:10.37,2013-07-16 08:50:00,
2013-07-16 02:00:00,65.0,65.0,30.15,South,180,3.0,5.0,100,0.00,CLR,,0.01,WeatherDisplay:10.37,2013-07-16 09:00:00,
2013-07-16 02:10:00,65.0,65.0,30.15,SSW,204,3.0,5.0,100,0.01,RA,,0.02,WeatherDisplay:10.37,2013-07-16 09:10:00,
2013-07-16 02:20:00,65.1,65.1,30.15,SW,225,3.0,5.0,100,0.00,CLR,,0.02,WeatherDisplay:10.37,2013-07-16 09:20:00,
2013-07-16 02:30:00,66.0,66.0,30.15,SW,225,2.0,5.0,100,0.01,RA,,0.03,WeatherDisplay:10.37,2013-07-16 09:30:00,
2013-07-16 02:40:00,66.0,66.0,30.15,South,188,2.0,6.0,100,0.00,,,0.03,WeatherDisplay:10.37,2013-07-16 09:40:00,
2013-07-16 02:50:00,65.0,65.0,30.15,SW,218,5.0,7.0,100,0.00,CLR,,0.03,WeatherDisplay:10.37,2013-07-16 09:50:00,
2013-07-16 03:00:00,65.0,65.0,30.15,SSW,202,5.0,7.0,100,0.00,CLR,,0.03,WeatherDisplay:10.37,2013-07-16 10:00:00,
2013-07-16 03:10:00,65.0,65.0,30.15,SSW,202,5.0,7.0,100,0.00,CLR,,0.03,WeatherDisplay:10.37,2013-07-16 10:10:00,
2013-07-16 03:20:00,65.0,65.0,30.15,SSW,202,5.0,7.0,100,0.00,CLR,,0.03,WeatherDisplay:10.37,2013-07-16 10:20:00,
2013-07-16 03:30:00,65.0,65.0,30.15,SSW,202,5.0,6.0,100,0.00,CLR,,0.03,WeatherDisplay:10.37,2013-07-16 10:30:00,
2013-07-16 03:40:00,65.0,65.0,30.15,SSW,202,3.0,6.0,100,0.00,CLR,,0.03,WeatherDisplay:10.37,2013-07-16 10:40:00,
2013-07-16 03:50:00,65.0,65.0,30.15,SSW,202,3.0,6.0,100,0.00,CLR,,0.03,WeatherDisplay:10.37,2013-07-16 10:50:00,
2013-07-16 04:00:00,65.0,65.0,30.15,SSW,202,5.0,6.0,100,0.00,CLR,,0.03,WeatherDisplay:10.37,2013-07-16 11:00:00,
2013-07-16 04:10:00,65.0,65.0,30.15,SSW,201,5.0,6.0,100,0.00,CLR,,0.03,WeatherDisplay:10.37,2013-07-16 11:10:00,
2013-07-16 04:20:00,65.0,65.0,30.14,SSW,202,5.0,6.0,100,0.01,RA,,0.04,WeatherDisplay:10.37,2013-07-16 11:20:00,
2013-07-16 04:30:00,65.0,65.0,30.13,SSW,202,3.0,5.0,100,0.00,CLR,,0.04,WeatherDisplay:10.37,2013-07-16 11:30:00,
2013-07-16 04:40:00,65.0,65.0,30.14,SSW,202,0.0,4.0,100,0.00,CLR,,0.04,WeatherDisplay:10.37,2013-07-16 11:40:00,
2013-07-16 04:50:00,65.0,65.0,30.15,SSW,202,2.0,6.0,100,0.00,CLR,,0.04,WeatherDisplay:10.37,2013-07-16 11:50:00,
2013-07-16 05:00:00,65.0,65.0,30.15,SSW,202,2.0,4.0,100,0.00,CLR,,0.04,WeatherDisplay:10.37,2013-07-16 12:00:00,
2013-07-16 05:10:00,65.0,65.0,30.15,SSW,202,0.0,3.0,100,0.00,CLR,,0.04,WeatherDisplay:10.37,2013-07-16 12:10:00,
2013-07-16 05:20:00,65.0,65.0,30.15,SSW,202,2.0,5.0,100,0.00,CLR,,0.04,WeatherDisplay:10.37,2013-07-16 12:20:00,
2013-07-16 05:30:00,65.0,65.0,30.15,South,181,0.0,4.0,100,0.00,CLR,,0.04,WeatherDisplay:10.37,2013-07-16 12:30:00,
2013-07-16 05:40:00,65.0,65.0,30.15,South,180,0.0,0.0,100,0.00,CLR,,0.04,WeatherDisplay:10.37,2013-07-16 12:40:00,
2013-07-16 05:50:00,65.0,65.0,30.16,South,180,0.0,1.0,100,0.00,CLR,,0.04,WeatherDisplay:10.37,2013-07-16 12:50:00,
2013-07-16 06:00:00,65.0,65.0,30.16,South,180,1.0,3.0,100,0.00,CLR,,0.04,WeatherDisplay:10.37,2013-07-16 13:00:00,
2013-07-16 06:10:00,65.0,65.0,30.16,South,180,0.0,1.0,100,0.00,CLR,,0.04,WeatherDisplay:10.37,2013-07-16 13:10:00,
2013-07-16 06:20:00,65.0,65.0,30.17,South,180,0.0,0.0,100,0.00,CLR,,0.04,WeatherDisplay:10.37,2013-07-16 13:20:00,
2013-07-16 06:30:00,65.0,65.0,30.17,South,180,1.0,4.0,100,0.00,CLR,,0.04,WeatherDisplay:10.37,2013-07-16 13:30:00,
2013-07-16 06:40:00,66.0,66.0,30.17,South,180,3.0,6.0,100,0.00,CLR,,0.04,WeatherDisplay:10.37,2013-07-16 13:40:00,
2013-07-16 06:50:00,66.0,66.0,30.17,South,180,3.0,6.0,100,0.00,CLR,,0.04,WeatherDisplay:10.37,2013-07-16 13:50:00,
2013-07-16 07:00:00,66.0,66.0,30.18,South,183,5.0,6.0,100,0.01,RA,,0.05,WeatherDisplay:10.37,2013-07-16 14:00:00,
2013-07-16 07:10:00,66.0,66.0,30.18,South,186,6.0,7.0,100,0.00,,,0.05,WeatherDisplay:10.37,2013-07-16 14:10:00,
2013-07-16 07:20:00,66.0,66.0,30.18,South,180,3.0,6.0,100,0.00,CLR,,0.05,WeatherDisplay:10.37,2013-07-16 14:20:00,
2013-07-16 07:30:00,66.0,66.0,30.18,South,180,5.0,7.0,100,0.00,CLR,,0.05,WeatherDisplay:10.37,2013-07-16 14:30:00,
2013-07-16 07:40:00,66.0,66.0,30.18,South,186,0.0,6.0,100,0.00,CLR,,0.05,WeatherDisplay:10.37,2013-07-16 14:40:00,
2013-07-16 07:50:00,67.0,67.0,30.18,South,169,2.0,5.0,100,0.00,CLR,,0.05,WeatherDisplay:10.37,2013-07-16 14:50:00,
2013-07-16 08:00:00,68.0,68.0,30.18,South,176,3.0,5.0,100,0.00,CLR,,0.05,WeatherDisplay:10.37,2013-07-16 15:00:00,
2013-07-16 08:10:00,68.0,68.0,30.17,SSE,159,1.0,7.0,100,0.00,CLR,,0.05,WeatherDisplay:10.37,2013-07-16 15:10:00,
2013-07-16 08:20:00,68.0,68.0,30.17,South,169,5.0,6.0,100,0.00,CLR,,0.05,WeatherDisplay:10.37,2013-07-16 15:20:00,
2013-07-16 08:30:00,68.0,68.0,30.17,South,180,3.0,8.0,100,0.00,CLR,,0.05,WeatherDisplay:10.37,2013-07-16 15:30:00,
2013-07-16 08:40:00,68.0,67.4,30.18,South,182,5.0,9.0,98,0.00,CLR,,0.05,WeatherDisplay:10.37,2013-07-16 15:40:00,
2013-07-16 08:50:00,69.0,67.5,30.17,South,175,7.0,12.0,95,0.00,CLR,,0.05,WeatherDisplay:10.37,2013-07-16 15:50:00,
2013-07-16 09:00:00,69.0,66.9,30.16,South,180,5.0,12.0,93,0.00,CLR,,0.05,WeatherDisplay:10.37,2013-07-16 16:00:00,
2013-07-16 09:10:00,70.0,67.9,30.16,South,177,5.0,9.0,93,0.00,CLR,,0.05,WeatherDisplay:10.37,2013-07-16 16:10:00,
2013-07-16 09:20:00,71.0,67.9,30.15,South,170,5.0,9.0,90,0.00,CLR,,0.05,WeatherDisplay:10.37,2013-07-16 16:20:00,
2013-07-16 09:30:00,70.0,66.6,30.16,South,181,7.0,10.0,89,0.00,CLR,,0.05,WeatherDisplay:10.37,2013-07-16 16:30:00,
2013-07-16 09:40:00,70.1,66.7,30.16,South,179,5.0,10.0,89,0.00,CLR,,0.05,WeatherDisplay:10.37,2013-07-16 16:40:00,
2013-07-16 09:50:00,72.0,66.6,30.15,South,186,6.0,10.0,83,0.00,CLR,,0.05,WeatherDisplay:10.37,2013-07-16 16:50:00,
2013-07-16 10:00:00,72.0,68.2,30.15,South,187,1.0,12.0,88,0.00,CLR,,0.05,WeatherDisplay:10.37,2013-07-16 17:00:00,
2013-07-16 10:10:00,75.0,68.4,30.15,South,182,7.0,9.0,80,0.00,CLR,,0.05,WeatherDisplay:10.37,2013-07-16 17:10:00,
2013-07-16 10:20:00,74.0,68.2,30.15,South,187,3.0,9.0,82,0.00,CLR,,0.05,WeatherDisplay:10.37,2013-07-16 17:20:00,
2013-07-16 10:30:00,74.0,66.3,30.15,South,178,6.0,9.0,77,0.00,CLR,,0.05,WeatherDisplay:10.37,2013-07-16 17:30:00,
2013-07-16 10:40:00,75.0,66.5,30.14,South,190,5.0,10.0,75,0.00,CLR,,0.05,WeatherDisplay:10.37,2013-07-16 17:40:00,
2013-07-16 10:50:00,75.0,66.1,30.14,South,179,3.0,9.0,74,0.00,CLR,,0.05,WeatherDisplay:10.37,2013-07-16 17:50:00,
2013-07-16 11:00:00,75.0,65.8,30.14,South,185,5.0,10.0,73,0.00,CLR,,0.05,WeatherDisplay:10.37,2013-07-16 18:00:00,
2013-07-16 11:10:00,74.0,65.6,30.14,SSW,206,7.0,10.0,75,0.00,CLR,,0.05,WeatherDisplay:10.37,2013-07-16 18:10:00,
2013-07-16 11:20:00,76.0,65.9,30.14,SSW,203,7.0,10.0,71,0.00,CLR,,0.05,WeatherDisplay:10.37,2013-07-16 18:20:00,
2013-07-16 11:30:00,77.0,67.7,30.14,SSW,192,6.0,10.0,73,0.00,CLR,,0.05,WeatherDisplay:10.37,2013-07-16 18:30:00,
2013-07-16 11:40:00,77.0,64.8,30.13,SSW,201,8.0,12.0,66,0.00,CLR,,0.05,WeatherDisplay:10.37,2013-07-16 18:40:00,
2013-07-16 11:50:00,77.0,65.6,30.13,South,191,3.0,10.0,68,0.00,CLR,,0.05,WeatherDisplay:10.37,2013-07-16 18:50:00,
2013-07-16 12:00:00,78.0,67.0,30.12,SW,221,6.0,10.0,69,0.00,CLR,,0.05,WeatherDisplay:10.37,2013-07-16 19:00:00,
2013-07-16 12:10:00,78.1,66.2,30.12,SSW,211,3.0,10.0,67,0.00,CLR,,0.05,WeatherDisplay:10.37,2013-07-16 19:10:00,
2013-07-16 12:20:00,79.9,67.5,30.10,SSW,200,8.0,12.0,66,0.00,CLR,,0.05,WeatherDisplay:10.37,2013-07-16 19:20:00,
2013-07-16 12:30:00,79.0,66.2,30.11,SSE,165,3.0,10.0,65,0.00,CLR,,0.05,WeatherDisplay:10.37,2013-07-16 19:30:00,
2013-07-16 12:40:00,79.0,67.1,30.11,SE,137,2.0,6.0,67,0.00,CLR,,0.05,WeatherDisplay:10.37,2013-07-16 19:40:00,
2013-07-16 12:50:00,78.0,65.3,30.10,SSW,197,5.0,7.0,65,0.00,CLR,,0.05,WeatherDisplay:10.37,2013-07-16 19:50:00,
2013-07-16 13:00:00,78.0,66.2,30.11,SSE,165,1.0,6.0,67,0.00,CLR,,0.05,WeatherDisplay:10.37,2013-07-16 20:00:00,
2013-07-16 13:10:00,76.0,66.7,30.11,ENE,73,10.0,13.0,73,0.00,CLR,,0.05,WeatherDisplay:10.37,2013-07-16 20:10:00,
2013-07-16 13:20:00,72.0,66.9,30.13,ENE,67,12.0,17.0,84,0.00,CLR,,0.05,WeatherDisplay:10.37,2013-07-16 20:20:00,
2013-07-16 13:30:00,70.0,68.2,30.15,ENE,62,9.0,17.0,94,0.02,RA,,0.07,WeatherDisplay:10.37,2013-07-16 20:30:00,
2013-07-16 13:40:00,68.0,66.2,30.16,NE,51,2.0,12.0,94,0.21,RA,,0.28,WeatherDisplay:10.37,2013-07-16 20:40:00,
2013-07-16 13:50:00,68.0,67.1,30.17,ESE,118,0.0,4.0,97,0.07,RA,,0.35,WeatherDisplay:10.37,2013-07-16 20:50:00,
2013-07-16 14:00:00,68.0,67.4,30.17,NE,52,8.0,10.0,98,0.01,RA,,0.36,WeatherDisplay:10.37,2013-07-16 21:00:00,
2013-07-16 14:10:00,68.0,67.1,30.17,NE,55,0.0,10.0,97,0.06,RA,,0.42,WeatherDisplay:10.37,2013-07-16 21:10:00,
2013-07-16 14:20:00,68.0,68.0,30.17,West,267,5.0,7.0,100,0.05,RA,,0.47,WeatherDisplay:10.37,2013-07-16 21:20:00,
2013-07-16 14:30:00,67.0,67.0,30.17,WNW,297,3.0,7.0,100,0.04,RA,,0.51,WeatherDisplay:10.37,2013-07-16 21:30:00,
2013-07-16 14:40:00,67.0,67.0,30.17,NW,315,2.0,6.0,100,0.00,CLR,,0.51,WeatherDisplay:10.37,2013-07-16 21:40:00,
2013-07-16 14:50:00,67.0,67.0,30.17,North,2,12.0,15.0,100,0.00,CLR,,0.51,WeatherDisplay:10.37,2013-07-16 21:50:00,
2013-07-16 15:00:00,67.0,67.0,30.17,North,358,9.0,16.0,100,0.02,RA,,0.53,WeatherDisplay:10.37,2013-07-16 22:00:00,
2013-07-16 15:10:00,67.0,67.0,30.17,North,355,8.0,12.0,100,0.01,RA,,0.54,WeatherDisplay:10.37,2013-07-16 22:10:00,
2013-07-16 15:20:00,68.0,68.0,30.17,North,356,8.0,12.0,100,0.01,RA,,0.55,WeatherDisplay:10.37,2013-07-16 22:20:00,
2013-07-16 15:30:00,68.0,68.0,30.17,North,353,9.0,12.0,100,0.01,RA,,0.56,WeatherDisplay:10.37,2013-07-16 22:30:00,
2013-07-16 15:40:00,67.0,67.0,30.17,NNW,348,9.0,13.0,100,0.01,RA,,0.57,WeatherDisplay:10.37,2013-07-16 22:40:00,
2013-07-16 15:50:00,66.0,66.0,30.17,North,354,10.0,14.0,100,0.06,RA,,0.63,WeatherDisplay:10.37,2013-07-16 22:50:00,
2013-07-16 16:00:00,65.0,65.0,30.19,NNW,336,9.0,12.0,100,0.06,RA,,0.69,WeatherDisplay:10.37,2013-07-16 23:00:00,
2013-07-16 16:10:00,65.0,65.0,30.19,NNW,328,7.0,12.0,100,0.04,RA,,0.73,WeatherDisplay:10.37,2013-07-16 23:10:00,
2013-07-16 16:20:00,66.0,66.0,30.19,NW,315,6.0,9.0,100,0.02,RA,,0.75,WeatherDisplay:10.37,2013-07-16 23:20:00,
2013-07-16 16:30:00,66.0,66.0,30.18,NNW,333,5.0,8.0,100,0.01,RA,,0.76,WeatherDisplay:10.37,2013-07-16 23:30:00,
2013-07-16 16:40:00,66.0,66.0,30.18,NNW,337,5.0,7.0,100,0.02,RA,,0.78,WeatherDisplay:10.37,2013-07-16 23:40:00,
2013-07-16 16:50:00,66.0,66.0,30.18,NNW,337,3.0,6.0,100,0.01,RA,,0.79,WeatherDisplay:10.37,2013-07-16 23:50:00,
2013-07-16 17:00:00,66.0,66.0,30.18,WNW,291,3.0,6.0,100,0.01,RA,,0.80,WeatherDisplay:10.37,2013-07-17 00:00:00,
2013-07-16 17:10:00,66.0,66.0,30.18,WSW,256,5.0,6.0,100,0.01,RA,,0.81,WeatherDisplay:10.37,2013-07-17 00:10:00,
2013-07-16 17:20:00,66.0,66.0,30.18,SW,231,2.0,6.0,100,0.00,,,0.81,WeatherDisplay:10.37,2013-07-17 00:20:00,
2013-07-16 17:30:00,66.0,66.0,30.18,SSW,199,3.0,6.0,100,0.00,CLR,,0.81,WeatherDisplay:10.37,2013-07-17 00:30:00,
2013-07-16 17:40:00,67.0,67.0,30.17,South,177,1.0,6.0,100,0.00,CLR,,0.81,WeatherDisplay:10.37,2013-07-17 00:40:00,
2013-07-16 17:50:00,67.0,67.0,30.17,South,180,5.0,7.0,100,0.00,CLR,,0.81,WeatherDisplay:10.37,2013-07-17 00:50:00,
2013-07-16 18:00:00,67.0,67.0,30.17,SSW,192,7.0,9.0,100,0.00,CLR,,0.81,WeatherDisplay:10.37,2013-07-17 01:00:00,
2013-07-16 18:10:00,66.9,66.9,30.18,SSW,200,6.0,7.0,100,0.00,CLR,,0.81,WeatherDisplay:10.37,2013-07-17 01:10:00,
2013-07-16 18:20:00,67.0,67.0,30.17,South,184,5.0,8.0,100,0.00,CLR,,0.81,WeatherDisplay:10.37,2013-07-17 01:20:00,
2013-07-16 18:30:00,66.9,66.9,30.18,South,183,6.0,7.0,100,0.00,CLR,,0.81,WeatherDisplay:10.37,2013-07-17 01:30:00,
2013-07-16 18:40:00,66.0,66.0,30.18,South,178,3.0,7.0,100,0.00,CLR,,0.81,WeatherDisplay:10.37,2013-07-17 01:40:00,
2013-07-16 18:50:00,66.0,66.0,30.18,South,180,5.0,7.0,100,0.00,CLR,,0.81,WeatherDisplay:10.37,2013-07-17 01:50:00,
2013-07-16 19:00:00,66.0,66.0,30.18,SSW,202,3.0,7.0,100,0.00,CLR,,0.81,WeatherDisplay:10.37,2013-07-17 02:00:00,
2013-07-16 19:10:00,66.0,66.0,30.19,South,180,2.0,6.0,100,0.00,CLR,,0.81,WeatherDisplay:10.37,2013-07-17 02:10:00,
2013-07-16 19:20:00,66.0,66.0,30.19,SSE,166,0.0,2.0,100,0.00,CLR,,0.81,WeatherDisplay:10.37,2013-07-17 02:20:00,
2013-07-16 19:30:00,65.0,65.0,30.19,SE,135,0.0,4.0,100,0.00,CLR,,0.81,WeatherDisplay:10.37,2013-07-17 02:30:00,
2013-07-16 19:40:00,65.0,65.0,30.19,SSE,156,1.0,5.0,100,0.00,CLR,,0.81,WeatherDisplay:10.37,2013-07-17 02:40:00,
2013-07-16 19:50:00,65.1,65.1,30.19,SSW,204,5.0,6.0,100,0.00,CLR,,0.81,WeatherDisplay:10.37,2013-07-17 02:50:00,
2013-07-16 20:00:00,66.0,66.0,30.18,SW,223,3.0,7.0,100,0.00,CLR,,0.81,WeatherDisplay:10.37,2013-07-17 03:00:00,
2013-07-16 20:10:00,65.0,65.0,30.19,SW,224,2.0,6.0,100,0.00,CLR,,0.81,WeatherDisplay:10.37,2013-07-17 03:10:00,
2013-07-16 20:20:00,65.0,65.0,30.19,SW,225,2.0,5.0,100,0.00,CLR,,0.81,WeatherDisplay:10.37,2013-07-17 03:20:00,
2013-07-16 20:30:00,65.0,65.0,30.20,SW,225,0.0,3.0,100,0.00,CLR,,0.81,WeatherDisplay:10.37,2013-07-17 03:30:00,
2013-07-16 20:40:00,65.0,65.0,30.20,SW,225,0.0,0.0,100,0.00,CLR,,0.81,WeatherDisplay:10.37,2013-07-17 03:40:00,
2013-07-16 20:50:00,65.0,65.0,30.20,SSE,157,0.0,1.0,100,0.00,CLR,,0.81,WeatherDisplay:10.37,2013-07-17 03:50:00,
2013-07-16 21:00:00,65.0,65.0,30.20,SSE,157,0.0,0.0,100,0.00,CLR,,0.81,WeatherDisplay:10.37,2013-07-17 04:00:00,
2013-07-16 21:10:00,65.0,65.0,30.21,SSE,157,0.0,0.0,100,0.00,CLR,,0.81,WeatherDisplay:10.37,2013-07-17 04:10:00,
2013-07-16 21:20:00,65.0,65.0,30.21,SSE,157,0.0,0.0,100,0.00,CLR,,0.81,WeatherDisplay:10.37,2013-07-17 04:20:00,
2013-07-16 21:30:00,65.0,65.0,30.21,SSE,157,0.0,0.0,100,0.00,CLR,,0.81,WeatherDisplay:10.37,2013-07-17 04:30:00,
2013-07-16 21:40:00,65.0,65.0,30.21,SSE,157,0.0,0.0,100,0.00,CLR,,0.81,WeatherDisplay:10.37,2013-07-17 04:40:00,
2013-07-16 21:50:00,65.0,65.0,30.22,SSE,157,0.0,0.0,100,0.00,CLR,,0.81,WeatherDisplay:10.37,2013-07-17 04:50:00,
2013-07-16 22:00:00,65.0,65.0,30.22,SSE,157,0.0,0.0,100,0.00,CLR,,0.81,WeatherDisplay:10.37,2013-07-17 05:00:00,
2013-07-16 22:10:00,65.0,65.0,30.22,SSE,157,0.0,0.0,100,0.00,CLR,,0.81,WeatherDisplay:10.37,2013-07-17 05:10:00,
2013-07-16 22:20:00,65.0,65.0,30.22,SSE,157,0.0,0.0,100,0.00,CLR,,0.81,WeatherDisplay:10.37,2013-07-17 05:20:00,
2013-07-16 22:30:00,65.0,65.0,30.22,SSE,157,0.0,0.0,100,0.00,CLR,,0.81,WeatherDisplay:10.37,2013-07-17 05:30:00,
2013-07-16 22:40:00,65.0,65.0,30.21,SSE,157,0.0,0.0,100,0.00,CLR,,0.81,WeatherDisplay:10.37,2013-07-17 05:40:00,
2013-07-16 22:50:00,65.0,65.0,30.21,SSE,157,0.0,0.0,100,0.00,CLR,,0.81,WeatherDisplay:10.37,2013-07-17 05:50:00,
2013-07-16 23:00:00,65.0,65.0,30.21,SSE,157,0.0,1.0,100,0.00,CLR,,0.81,WeatherDisplay:10.37,2013-07-17 06:00:00,
2013-07-16 23:10:00,65.0,65.0,30.22,SSE,157,0.0,0.0,100,0.00,CLR,,0.81,WeatherDisplay:10.37,2013-07-17 06:10:00,
2013-07-16 23:20:00,65.0,65.0,30.22,SSE,157,0.0,0.0,100,0.00,CLR,,0.81,WeatherDisplay:10.37,2013-07-17 06:20:00,
2013-07-16 23:30:00,65.0,65.0,30.22,SSE,157,0.0,0.0,100,0.00,CLR,,0.81,WeatherDisplay:10.37,2013-07-17 06:30:00,
2013-07-16 23:40:00,66.0,66.0,30.22,SSE,148,0.0,2.0,100,0.00,CLR,,0.81,WeatherDisplay:10.37,2013-07-17 06:40:00,
2013-07-16 23:50:00,65.0,65.0,30.22,East,90,0.0,2.0,100,0.00,CLR,,0.81,WeatherDisplay:10.37,2013-07-17 06:50:00,